createdAt,value
2018-10-19T00:00:33.223Z,93.26
2018-10-19T00:01:33.212Z,92.91
2018-10-19T00:02:33.204Z,92.80
2018-10-19T00:03:33.206Z,92.40
2018-10-19T00:04:33.178Z,92.70
2018-10-19T00:05:33.166Z,92.40
2018-10-19T00:06:33.161Z,91.98
2018-10-19T00:07:33.153Z,92.08
2018-10-19T00:08:33.133Z,92.50
2018-10-19T00:09:33.136Z,91.36
2018-10-19T00:10:33.113Z,91.98
2018-10-19T00:11:33.100Z,90.74
2018-10-19T00:12:33.112Z,90.95
2018-10-19T00:13:33.078Z,90.53
2018-10-19T00:14:33.068Z,90.84
2018-10-19T00:15:33.066Z,90.84
2018-10-19T00:16:33.044Z,90.53
2018-10-19T00:17:33.033Z,90.64
2018-10-19T00:18:33.027Z,90.78
2018-10-19T00:19:33.013Z,91.16
2018-10-19T00:20:33.002Z,90.95
2018-10-19T00:21:33.002Z,90.47
2018-10-19T00:22:40.011Z,90.99
2018-10-19T00:23:32.970Z,91.88
2018-10-19T00:24:32.966Z,91.92
2018-10-19T00:25:32.945Z,91.71
2018-10-19T00:26:32.932Z,91.71
2018-10-19T00:27:32.933Z,91.71
2018-10-19T00:28:32.924Z,91.40
2018-10-19T00:29:32.898Z,91.40
2018-10-19T00:30:32.888Z,91.40
2018-10-19T00:31:32.878Z,91.40
2018-10-19T00:32:32.877Z,92.48
2018-10-19T00:33:32.872Z,91.82
2018-10-19T00:34:32.862Z,92.33
2018-10-19T00:35:32.840Z,92.02
2018-10-19T00:36:32.841Z,92.38
2018-10-19T00:37:32.812Z,92.27
2018-10-19T00:38:32.799Z,92.17
2018-10-19T00:39:32.800Z,92.38
2018-10-19T00:40:32.778Z,92.27
2018-10-19T00:41:32.778Z,92.27
2018-10-19T00:42:32.755Z,91.44
2018-10-19T00:43:32.781Z,91.55
2018-10-19T00:44:40.136Z,91.44
2018-10-19T00:45:32.725Z,92.58
2018-10-19T00:46:32.715Z,92.44
2018-10-19T00:47:32.702Z,91.44
2018-10-19T00:48:32.700Z,91.96
2018-10-19T00:49:32.681Z,92.17
2018-10-19T00:50:32.681Z,93.24
2018-10-19T00:51:32.667Z,92.32
2018-10-19T00:52:32.657Z,93.45
2018-10-19T00:53:32.652Z,93.35
2018-10-19T00:54:32.627Z,93.76
2018-10-19T00:55:32.621Z,94.28
2018-10-19T00:56:32.616Z,94.01
2018-10-19T00:57:32.593Z,94.18
2018-10-19T00:58:32.578Z,93.66
2018-10-19T00:59:32.580Z,93.55
2018-10-19T01:00:32.563Z,93.35
2018-10-19T01:01:32.560Z,93.35
2018-10-19T01:02:32.539Z,93.24
2018-10-19T01:03:32.568Z,93.14
2018-10-19T01:04:32.520Z,93.35
2018-10-19T01:05:32.539Z,93.14
2018-10-19T01:06:32.487Z,93.45
2018-10-19T01:07:32.490Z,93.24
2018-10-19T01:08:32.469Z,92.72
2018-10-19T01:09:32.461Z,92.42
2018-10-19T01:10:32.452Z,93.14
2018-10-19T01:11:32.437Z,92.83
2018-10-19T01:12:32.430Z,93.35
2018-10-19T01:13:32.409Z,93.24
2018-10-19T01:14:32.408Z,93.04
2018-10-19T01:15:32.399Z,93.04
2018-10-19T01:16:32.400Z,93.66
2018-10-19T01:17:32.368Z,93.45
2018-10-19T01:18:32.362Z,93.60
2018-10-19T01:19:32.346Z,93.45
2018-10-19T01:20:32.341Z,93.45
2018-10-19T01:21:32.333Z,93.14
2018-10-19T01:22:32.321Z,93.45
2018-10-19T01:23:32.306Z,93.35
2018-10-19T01:24:32.285Z,92.63
2018-10-19T01:25:32.279Z,93.45
2018-10-19T01:26:39.308Z,93.55
2018-10-19T01:27:32.288Z,92.97
2018-10-19T01:28:32.249Z,93.04
2018-10-19T01:29:32.235Z,92.32
2018-10-19T01:30:32.242Z,92.21
2018-10-19T01:31:32.225Z,92.21
2018-10-19T01:32:32.196Z,91.69
2018-10-19T01:33:32.190Z,91.69
2018-10-19T01:34:32.182Z,91.90
2018-10-19T01:35:32.163Z,90.87
2018-10-19T01:36:32.152Z,91.07
2018-10-19T01:37:32.143Z,90.97
2018-10-19T01:38:32.134Z,91.80
2018-10-19T01:39:32.124Z,90.97
2018-10-19T01:40:32.125Z,92.00
2018-10-19T01:41:32.097Z,91.74
2018-10-19T01:42:32.084Z,91.53
2018-10-19T01:43:32.087Z,91.84
2018-10-19T01:44:32.068Z,91.74
2018-10-19T01:45:32.051Z,91.94
2018-10-19T01:46:32.051Z,91.53
2018-10-19T01:47:32.046Z,92.15
2018-10-19T01:48:32.018Z,92.46
2018-10-19T01:49:32.013Z,92.25
2018-10-19T01:50:31.995Z,93.39
2018-10-19T01:51:31.987Z,93.18
2018-10-19T01:52:31.973Z,92.71
2018-10-19T01:53:31.975Z,92.91
2018-10-19T01:54:31.957Z,93.74
2018-10-19T01:55:31.939Z,92.61
2018-10-19T01:56:31.929Z,92.61
2018-10-19T01:57:31.922Z,93.85
2018-10-19T01:58:31.908Z,92.61
2018-10-19T01:59:31.924Z,93.54
2018-10-19T02:00:31.895Z,93.43
2018-10-19T02:01:31.875Z,93.23
2018-10-19T02:02:31.862Z,92.30
2018-10-19T02:03:31.853Z,92.19
2018-10-19T02:04:31.844Z,92.40
2018-10-19T02:05:31.833Z,92.09
2018-10-19T02:06:31.823Z,92.71
2018-10-19T02:07:31.821Z,93.02
2018-10-19T02:08:31.804Z,93.33
2018-10-19T02:09:31.784Z,92.91
2018-10-19T02:10:31.776Z,93.43
2018-10-19T02:11:31.764Z,93.54
2018-10-19T02:12:31.753Z,93.23
2018-10-19T02:13:31.741Z,93.23
2018-10-19T02:14:31.732Z,93.43
2018-10-19T02:15:31.752Z,93.23
2018-10-19T02:16:31.707Z,93.33
2018-10-19T02:17:31.697Z,93.64
2018-10-19T02:18:31.685Z,93.48
2018-10-19T02:19:31.679Z,93.12
2018-10-19T02:20:31.662Z,93.54
2018-10-19T02:21:31.673Z,93.33
2018-10-19T02:22:31.641Z,93.23
2018-10-19T02:23:31.630Z,93.33
2018-10-19T02:24:31.622Z,93.68
2018-10-19T02:25:31.609Z,93.48
2018-10-19T02:26:31.603Z,93.95
2018-10-19T02:27:31.593Z,93.33
2018-10-19T02:28:31.581Z,93.43
2018-10-19T02:29:31.567Z,94.62
2018-10-19T02:30:31.553Z,94.31
2018-10-19T02:31:31.558Z,94.62
2018-10-19T02:32:31.531Z,95.44
2018-10-19T02:33:31.519Z,95.24
2018-10-19T02:34:31.513Z,95.65
2018-10-19T02:35:31.529Z,95.34
2018-10-19T02:36:31.487Z,95.54
2018-10-19T02:37:31.478Z,95.34
2018-10-19T02:38:31.463Z,94.93
2018-10-19T02:39:31.452Z,94.51
2018-10-19T02:40:31.441Z,94.31
2018-10-19T02:41:31.450Z,94.72
2018-10-19T02:42:31.428Z,94.31
2018-10-19T02:43:31.410Z,93.68
2018-10-19T02:44:31.398Z,93.89
2018-10-19T02:45:31.385Z,93.43
2018-10-19T02:46:31.374Z,93.16
2018-10-19T02:47:31.392Z,93.48
2018-10-19T02:48:31.365Z,93.48
2018-10-19T02:49:31.343Z,93.33
2018-10-19T02:50:31.329Z,93.48
2018-10-19T02:51:31.324Z,93.37
2018-10-19T02:52:31.309Z,93.27
2018-10-19T02:53:31.311Z,93.79
2018-10-19T02:54:31.287Z,93.48
2018-10-19T02:55:31.278Z,93.99
2018-10-19T02:56:31.262Z,93.37
2018-10-19T02:57:31.253Z,93.37
2018-10-19T02:58:31.244Z,93.16
2018-10-19T02:59:31.233Z,93.06
2018-10-19T03:00:31.218Z,93.37
2018-10-19T03:01:31.208Z,93.89
2018-10-19T03:02:31.199Z,93.58
2018-10-19T03:03:31.233Z,93.99
2018-10-19T03:04:31.173Z,93.99
2018-10-19T03:05:31.163Z,94.51
2018-10-19T03:06:31.166Z,94.66
2018-10-19T03:07:31.140Z,94.56
2018-10-19T03:08:31.132Z,94.56
2018-10-19T03:09:31.126Z,94.51
2018-10-19T03:10:31.107Z,94.10
2018-10-19T03:11:31.178Z,94.24
2018-10-19T03:12:31.090Z,94.31
2018-10-19T03:13:31.074Z,94.66
2018-10-19T03:14:31.088Z,93.83
2018-10-19T03:15:31.058Z,93.58
2018-10-19T03:16:31.040Z,93.48
2018-10-19T03:17:31.062Z,94.04
2018-10-19T03:18:31.021Z,93.52
2018-10-19T03:19:31.024Z,94.87
2018-10-19T03:20:30.996Z,94.35
2018-10-19T03:21:30.986Z,93.58
2018-10-19T03:22:30.977Z,94.87
2018-10-19T03:23:31.011Z,93.62
2018-10-19T03:24:30.951Z,94.76
2018-10-19T03:25:30.947Z,94.66
2018-10-19T03:26:30.936Z,94.24
2018-10-19T03:27:30.924Z,94.87
2018-10-19T03:28:30.910Z,93.58
2018-10-19T03:29:30.926Z,94.51
2018-10-19T03:30:30.887Z,93.48
2018-10-19T03:31:30.873Z,93.93
2018-10-19T03:32:30.861Z,94.45
2018-10-19T03:33:30.849Z,94.66
2018-10-19T03:34:30.839Z,95.07
2018-10-19T03:35:30.885Z,95.14
2018-10-19T03:36:30.817Z,95.07
2018-10-19T03:37:30.809Z,95.28
2018-10-19T03:38:30.798Z,94.76
2018-10-19T03:39:30.830Z,95.24
2018-10-19T03:40:30.793Z,95.28
2018-10-19T03:41:30.800Z,94.76
2018-10-19T03:42:30.752Z,95.28
2018-10-19T03:43:30.739Z,95.18
2018-10-19T03:44:30.729Z,95.49
2018-10-19T03:45:30.725Z,95.18
2018-10-19T03:46:30.710Z,95.39
2018-10-19T03:47:30.716Z,95.18
2018-10-19T03:48:30.684Z,95.18
2018-10-19T03:49:30.674Z,95.18
2018-10-19T03:50:30.662Z,95.07
2018-10-19T03:51:30.654Z,95.07
2018-10-19T03:52:30.640Z,95.28
2018-10-19T03:53:30.664Z,95.39
2018-10-19T03:54:30.618Z,94.87
2018-10-19T03:55:30.605Z,95.24
2018-10-19T03:56:30.614Z,95.24
2018-10-19T03:57:30.584Z,95.03
2018-10-19T03:58:30.575Z,95.14
2018-10-19T03:59:30.578Z,95.24
2018-10-19T04:00:30.552Z,95.49
2018-10-19T04:01:30.540Z,95.14
2018-10-19T04:02:30.538Z,95.14
2018-10-19T04:03:30.574Z,95.54
2018-10-19T04:04:30.507Z,95.54
2018-10-19T04:05:30.531Z,96.06
2018-10-19T04:06:30.487Z,96.58
2018-10-19T04:07:30.479Z,97.00
2018-10-19T04:08:30.463Z,96.73
2018-10-19T04:09:30.454Z,96.58
2018-10-19T04:10:30.440Z,96.58
2018-10-19T04:11:30.480Z,96.48
2018-10-19T04:12:30.448Z,96.37
2018-10-19T04:13:30.445Z,96.27
2018-10-19T04:14:30.395Z,95.54
2018-10-19T04:15:30.385Z,94.93
2018-10-19T04:16:30.381Z,95.03
2018-10-19T04:17:30.375Z,95.24
2018-10-19T04:18:30.356Z,95.03
2018-10-19T04:19:30.344Z,94.93
2018-10-19T04:20:30.328Z,94.93
2018-10-19T04:21:30.318Z,94.82
2018-10-19T04:22:30.310Z,94.72
2018-10-19T04:23:30.319Z,94.82
2018-10-19T04:24:30.288Z,94.72
2018-10-19T04:25:30.276Z,94.82
2018-10-19T04:26:30.266Z,94.89
2018-10-19T04:27:30.363Z,95.03
2018-10-19T04:28:30.258Z,94.72
2018-10-19T04:29:30.243Z,95.14
2018-10-19T04:30:30.218Z,95.24
2018-10-19T04:31:30.207Z,95.24
2018-10-19T04:32:30.213Z,94.72
2018-10-19T04:33:30.200Z,95.03
2018-10-19T04:34:30.182Z,95.03
2018-10-19T04:35:30.207Z,94.93
2018-10-19T04:36:30.154Z,95.14
2018-10-19T04:37:30.142Z,95.09
2018-10-19T04:38:30.134Z,95.71
2018-10-19T04:39:30.126Z,95.92
2018-10-19T04:40:30.107Z,95.50
2018-10-19T04:41:30.173Z,95.81
2018-10-19T04:42:30.085Z,95.75
2018-10-19T04:43:30.075Z,96.17
2018-10-19T04:44:30.071Z,96.37
2018-10-19T04:45:30.052Z,96.89
2018-10-19T04:46:30.043Z,96.58
2018-10-19T04:47:30.101Z,96.79
2018-10-19T04:48:30.032Z,96.58
2018-10-19T04:49:30.026Z,96.58
2018-10-19T04:50:29.999Z,96.79
2018-10-19T04:51:29.987Z,96.48
2018-10-19T04:52:29.981Z,96.27
2018-10-19T04:53:30.015Z,96.58
2018-10-19T04:54:29.960Z,96.58
2018-10-19T04:55:29.948Z,96.58
2018-10-19T04:56:29.936Z,96.58
2018-10-19T04:57:29.921Z,96.69
2018-10-19T04:58:29.908Z,97.00
2018-10-19T04:59:29.932Z,96.89
2018-10-19T05:00:29.890Z,96.37
2018-10-19T05:01:29.874Z,96.17
2018-10-19T05:02:29.917Z,96.48
2018-10-19T05:03:29.852Z,96.37
2018-10-19T05:04:29.862Z,96.58
2018-10-19T05:05:29.932Z,96.69
2018-10-19T05:06:29.866Z,95.75
2018-10-19T05:07:29.837Z,95.65
2018-10-19T05:08:29.841Z,95.75
2018-10-19T05:09:29.819Z,95.75
2018-10-19T05:10:29.795Z,95.24
2018-10-19T05:11:29.778Z,95.34
2018-10-19T05:12:29.851Z,95.14
2018-10-19T05:13:30.689Z,95.34
2018-10-19T05:14:29.772Z,95.24
2018-10-19T05:15:29.720Z,94.72
2018-10-19T05:16:29.753Z,94.82
2018-10-19T05:17:29.720Z,94.62
2018-10-19T05:18:29.715Z,94.41
2018-10-19T05:19:29.695Z,94.72
2018-10-19T05:20:29.726Z,95.03
2018-10-19T05:21:29.691Z,95.03
2018-10-19T05:22:29.642Z,94.93
2018-10-19T05:23:29.633Z,95.03
2018-10-19T05:24:29.671Z,94.72
2018-10-19T05:25:29.611Z,94.41
2018-10-19T05:26:29.597Z,94.10
2018-10-19T05:27:29.597Z,93.89
2018-10-19T05:28:29.574Z,93.89
2018-10-19T05:29:29.568Z,94.35
2018-10-19T05:30:29.551Z,94.56
2018-10-19T05:31:29.541Z,94.66
2018-10-19T05:32:29.545Z,94.45
2018-10-19T05:33:29.521Z,94.35
2018-10-19T05:34:29.508Z,95.32
2018-10-19T05:35:29.496Z,95.32
2018-10-19T05:36:29.486Z,95.43
2018-10-19T05:37:29.504Z,95.28
2018-10-19T05:38:37.040Z,95.28
2018-10-19T05:39:29.455Z,94.45
2018-10-19T05:40:29.443Z,94.45
2018-10-19T05:41:29.431Z,94.14
2018-10-19T05:42:29.422Z,94.45
2018-10-19T05:43:29.492Z,94.04
2018-10-19T05:44:29.406Z,94.14
2018-10-19T05:45:29.393Z,93.62
2018-10-19T05:46:29.383Z,93.62
2018-10-19T05:47:29.371Z,93.31
2018-10-19T05:48:29.373Z,93.41
2018-10-19T05:49:29.348Z,93.56
2018-10-19T05:50:29.337Z,93.46
2018-10-19T05:51:29.321Z,93.31
2018-10-19T05:52:29.324Z,93.35
2018-10-19T05:53:29.339Z,93.77
2018-10-19T05:54:29.294Z,93.66
2018-10-19T05:55:29.275Z,93.46
2018-10-19T05:56:29.281Z,93.98
2018-10-19T05:57:29.260Z,93.77
2018-10-19T05:58:29.251Z,93.56
2018-10-19T05:59:29.243Z,93.56
2018-10-19T06:00:29.240Z,93.56
2018-10-19T06:01:29.247Z,93.87
2018-10-19T06:02:29.398Z,93.56
2018-10-19T06:03:29.227Z,93.52
2018-10-19T06:04:29.211Z,93.66
2018-10-19T06:05:29.176Z,93.66
2018-10-19T06:06:29.161Z,92.84
2018-10-19T06:07:29.158Z,93.98
2018-10-19T06:08:29.144Z,93.83
2018-10-19T06:09:29.138Z,93.93
2018-10-19T06:10:29.110Z,93.93
2018-10-19T06:11:29.103Z,93.93
2018-10-19T06:12:29.095Z,93.77
2018-10-19T06:13:29.118Z,93.73
2018-10-19T06:14:29.087Z,93.93
2018-10-19T06:15:29.063Z,94.56
2018-10-19T06:16:29.067Z,94.14
2018-10-19T06:17:29.050Z,94.35
2018-10-19T06:18:29.034Z,94.04
2018-10-19T06:19:29.013Z,94.70
2018-10-19T06:20:29.012Z,95.18
2018-10-19T06:21:28.997Z,95.39
2018-10-19T06:22:28.978Z,95.39
2018-10-19T06:23:28.970Z,95.28
2018-10-19T06:24:28.980Z,95.59
2018-10-19T06:25:28.942Z,96.11
2018-10-19T06:26:28.993Z,96.52
2018-10-19T06:27:28.921Z,97.04
2018-10-19T06:28:28.918Z,96.31
2018-10-19T06:29:28.909Z,96.83
2018-10-19T06:30:28.888Z,97.25
2018-10-19T06:31:28.875Z,97.35
2018-10-19T06:32:28.874Z,97.52
2018-10-19T06:33:28.891Z,97.62
2018-10-19T06:34:28.851Z,97.41
2018-10-19T06:35:28.836Z,97.20
2018-10-19T06:36:28.818Z,97.31
2018-10-19T06:37:28.816Z,97.41
2018-10-19T06:38:28.808Z,97.41
2018-10-19T06:39:28.803Z,97.31
2018-10-19T06:40:28.779Z,97.31
2018-10-19T06:41:28.768Z,97.31
2018-10-19T06:42:28.754Z,97.41
2018-10-19T06:43:28.756Z,97.31
2018-10-19T06:44:28.736Z,97.31
2018-10-19T06:45:28.736Z,97.00
2018-10-19T06:46:28.727Z,96.27
2018-10-19T06:47:28.733Z,96.44
2018-10-19T06:48:28.688Z,95.96
2018-10-19T06:49:28.697Z,95.29
2018-10-19T06:50:28.678Z,95.71
2018-10-19T06:51:28.651Z,95.29
2018-10-19T06:52:28.643Z,95.40
2018-10-19T06:53:28.634Z,95.40
2018-10-19T06:54:37.189Z,95.40
2018-10-19T06:55:35.655Z,95.71
2018-10-19T06:56:36.698Z,95.50
2018-10-19T06:57:28.592Z,95.71
2018-10-19T06:58:28.578Z,96.02
2018-10-19T06:59:28.644Z,96.02
2018-10-19T07:00:28.577Z,95.98
2018-10-19T07:01:28.558Z,95.61
2018-10-19T07:02:28.533Z,96.12
2018-10-19T07:03:28.524Z,96.08
2018-10-19T07:04:28.513Z,96.49
2018-10-19T07:05:28.544Z,96.49
2018-10-19T07:06:28.523Z,96.49
2018-10-19T07:07:28.492Z,96.59
2018-10-19T07:08:28.591Z,97.42
2018-10-19T07:09:28.461Z,97.42
2018-10-19T07:10:28.460Z,97.67
2018-10-19T07:11:28.437Z,97.32
2018-10-19T07:12:28.436Z,98.35
2018-10-19T07:13:28.464Z,97.74
2018-10-19T07:14:28.402Z,98.50
2018-10-19T07:15:28.385Z,98.30
2018-10-19T07:16:28.404Z,98.35
2018-10-19T07:17:28.398Z,98.77
2018-10-19T07:18:28.351Z,98.66
2018-10-19T07:19:28.353Z,98.15
2018-10-19T07:20:28.338Z,98.35
2018-10-19T07:21:28.367Z,98.62
2018-10-19T07:22:28.361Z,99.65
2018-10-19T07:23:28.333Z,99.55
2018-10-19T07:24:28.389Z,99.14
2018-10-19T07:25:28.307Z,99.14
2018-10-19T07:26:28.274Z,99.24
2018-10-19T07:27:28.263Z,98.78
2018-10-19T07:28:28.286Z,99.09
2018-10-19T07:29:28.284Z,99.09
2018-10-19T07:30:28.229Z,99.19
2018-10-19T07:31:28.291Z,99.09
2018-10-19T07:32:28.219Z,99.40
2018-10-19T07:33:28.220Z,99.25
2018-10-19T07:34:28.210Z,99.25
2018-10-19T07:35:28.185Z,99.05
2018-10-19T07:36:28.357Z,99.15
2018-10-19T07:37:28.153Z,99.05
2018-10-19T07:38:28.147Z,99.21
2018-10-19T07:39:28.128Z,99.21
2018-10-19T07:40:35.467Z,99.52
2018-10-19T07:41:28.122Z,98.90
2018-10-19T07:42:28.151Z,98.38
2018-10-19T07:43:28.079Z,98.58
2018-10-19T07:44:28.064Z,98.38
2018-10-19T07:45:28.052Z,98.44
2018-10-19T07:46:28.042Z,98.13
2018-10-19T07:47:28.158Z,98.33
2018-10-19T07:48:28.076Z,97.72
2018-10-19T07:49:28.028Z,98.13
2018-10-19T07:50:27.997Z,98.02
2018-10-19T07:51:27.985Z,98.13
2018-10-19T07:52:27.973Z,98.44
2018-10-19T07:53:27.966Z,99.26
2018-10-19T07:54:28.033Z,98.96
2018-10-19T07:55:27.944Z,98.85
2018-10-19T07:56:27.937Z,99.22
2018-10-19T07:57:27.920Z,99.01
2018-10-19T07:58:27.910Z,99.84
2018-10-19T07:59:27.912Z,99.79
2018-10-19T08:00:27.923Z,99.48
2018-10-19T08:01:27.875Z,99.58
2018-10-19T08:02:27.861Z,99.38
2018-10-19T08:03:27.865Z,98.97
2018-10-19T08:04:27.845Z,99.99
2018-10-19T08:05:27.856Z,99.79
2018-10-19T08:06:27.818Z,99.74
2018-10-19T08:07:27.816Z,99.13
2018-10-19T08:08:27.800Z,99.23
2018-10-19T08:09:27.798Z,99.49
2018-10-19T08:10:27.812Z,99.29
2018-10-19T08:11:27.794Z,99.08
2018-10-19T08:12:27.757Z,98.97
2018-10-19T08:13:27.741Z,99.14
2018-10-19T08:14:27.732Z,98.88
2018-10-19T08:15:27.743Z,98.32
2018-10-19T08:16:27.727Z,98.93
2018-10-19T08:17:27.701Z,98.79
2018-10-19T08:18:27.694Z,97.90
2018-10-19T08:19:27.676Z,98.06
2018-10-19T08:20:34.752Z,98.06
2018-10-19T08:21:27.674Z,98.27
2018-10-19T08:22:27.640Z,97.81
2018-10-19T08:23:27.628Z,97.91
2018-10-19T08:24:27.619Z,97.56
2018-10-19T08:25:27.609Z,98.18
2018-10-19T08:26:27.640Z,97.05
2018-10-19T08:27:27.615Z,96.73
2018-10-19T08:28:27.606Z,96.48
2018-10-19T08:29:27.564Z,96.28
2018-10-19T08:30:27.551Z,95.93
2018-10-19T08:31:27.543Z,96.03
2018-10-19T08:32:27.543Z,95.37
2018-10-19T08:33:27.519Z,94.76
2018-10-19T08:34:27.511Z,94.45
2018-10-19T08:35:27.498Z,94.34
2018-10-19T08:36:27.544Z,94.10
2018-10-19T08:37:27.551Z,94.40
2018-10-19T08:38:34.584Z,93.99
2018-10-19T08:39:27.495Z,93.64
2018-10-19T08:40:27.489Z,93.33
2018-10-19T08:41:27.528Z,93.54
2018-10-19T08:42:27.439Z,93.74
2018-10-19T08:43:27.408Z,93.39
2018-10-19T08:44:27.394Z,93.60
2018-10-19T08:45:27.389Z,92.68
2018-10-19T08:46:27.377Z,92.22
2018-10-19T08:47:27.386Z,92.63
2018-10-19T08:48:27.354Z,92.83
2018-10-19T08:49:27.338Z,92.49
2018-10-19T08:50:27.327Z,92.49
2018-10-19T08:51:27.455Z,92.49
2018-10-19T08:52:34.342Z,92.59
2018-10-19T08:53:27.333Z,92.38
2018-10-19T08:54:27.288Z,91.93
2018-10-19T08:55:27.315Z,91.93
2018-10-19T08:56:27.259Z,92.08
2018-10-19T08:57:27.249Z,92.34
2018-10-19T08:58:27.447Z,92.14
2018-10-19T08:59:27.263Z,92.81
2018-10-19T09:00:34.260Z,91.27
2018-10-19T09:01:27.209Z,91.38
2018-10-19T09:02:34.483Z,91.48
2018-10-19T09:03:27.236Z,91.27
2018-10-19T09:04:27.185Z,91.38
2018-10-19T09:05:27.172Z,91.38
2018-10-19T09:06:27.150Z,91.95
2018-10-19T09:07:27.143Z,91.44
2018-10-19T09:08:27.129Z,91.23
2018-10-19T09:09:27.121Z,90.41
2018-10-19T09:10:27.129Z,91.60
2018-10-19T09:11:27.154Z,91.54
2018-10-19T09:12:27.152Z,91.50
2018-10-19T09:13:27.091Z,91.19
2018-10-19T09:14:35.031Z,90.58
2018-10-19T09:15:27.997Z,89.97
2018-10-19T09:16:27.034Z,89.61
2018-10-19T09:17:27.026Z,88.70
2018-10-19T09:18:27.058Z,88.59
2018-10-19T09:19:27.007Z,89.67
2018-10-19T09:20:26.992Z,88.76
2018-10-19T09:21:27.049Z,88.45
2018-10-19T09:22:26.967Z,88.35
2018-10-19T09:23:27.013Z,88.76
2018-10-19T09:24:26.960Z,89.32
2018-10-19T09:25:27.030Z,89.73
2018-10-19T09:26:26.922Z,88.47
2018-10-19T09:27:26.920Z,88.57
2018-10-19T09:28:26.900Z,87.65
2018-10-19T09:29:26.921Z,86.83
2018-10-19T09:30:34.094Z,86.69
2018-10-19T09:31:26.871Z,87.51
2018-10-19T09:32:26.859Z,86.24
2018-10-19T09:33:26.848Z,85.57
2018-10-19T09:34:26.837Z,85.63
2018-10-19T09:35:26.866Z,85.94
2018-10-19T09:36:27.028Z,83.76
2018-10-19T09:37:26.801Z,84.06
2018-10-19T09:38:26.833Z,83.56
2018-10-19T09:39:26.777Z,83.15
2018-10-19T09:40:26.766Z,81.99
2018-10-19T09:41:26.880Z,83.01
2018-10-19T09:42:26.743Z,82.50
2018-10-19T09:43:26.751Z,82.40
2018-10-19T09:44:26.724Z,82.66
2018-10-19T09:45:26.708Z,82.15
2018-10-19T09:46:26.699Z,81.74
2018-10-19T09:47:33.772Z,81.85
2018-10-19T09:48:26.674Z,81.44
2018-10-19T09:49:26.698Z,81.95
2018-10-19T09:50:26.733Z,81.10
2018-10-19T09:51:33.694Z,80.59
2018-10-19T09:52:26.631Z,80.90
2018-10-19T09:53:26.627Z,80.49
2018-10-19T09:54:26.615Z,80.65
2018-10-19T09:55:26.626Z,79.43
2018-10-19T09:56:26.592Z,80.65
2018-10-19T09:57:26.574Z,80.65
2018-10-19T09:58:26.564Z,80.35
2018-10-19T09:59:26.558Z,81.46
2018-10-19T10:00:26.549Z,79.09
2018-10-19T10:01:26.544Z,78.58
2018-10-19T10:02:26.531Z,78.68
2018-10-19T10:03:26.512Z,79.09
2018-10-19T10:04:26.497Z,77.87
2018-10-19T10:05:26.497Z,77.47
2018-10-19T10:06:26.485Z,78.48
2018-10-19T10:07:26.462Z,77.56
2018-10-19T10:08:26.465Z,77.33
2018-10-19T10:09:26.445Z,78.34
2018-10-19T10:10:26.428Z,77.43
2018-10-19T10:11:26.465Z,77.22
2018-10-19T10:12:26.408Z,75.29
2018-10-19T10:13:26.395Z,75.80
2018-10-19T10:14:26.398Z,75.70
2018-10-19T10:15:26.502Z,76.07
2018-10-19T10:16:26.363Z,74.85
2018-10-19T10:17:26.358Z,74.65
2018-10-19T10:18:26.344Z,74.95
2018-10-19T10:19:26.327Z,75.16
2018-10-19T10:20:26.322Z,75.67
2018-10-19T10:21:26.314Z,75.83
2018-10-19T10:22:26.314Z,75.26
2018-10-19T10:23:26.285Z,75.12
2018-10-19T10:24:26.273Z,74.82
2018-10-19T10:25:26.265Z,75.26
2018-10-19T10:26:26.250Z,75.12
2018-10-19T10:27:26.259Z,75.12
2018-10-19T10:28:26.226Z,73.70
2018-10-19T10:29:26.218Z,75.32
2018-10-19T10:30:26.207Z,75.02
2018-10-19T10:31:26.198Z,75.32
2018-10-19T10:32:26.276Z,72.85
2018-10-19T10:33:26.182Z,72.25
2018-10-19T10:34:26.165Z,73.46
2018-10-19T10:35:26.149Z,73.66
2018-10-19T10:36:26.139Z,73.57
2018-10-19T10:37:26.135Z,73.16
2018-10-19T10:38:26.128Z,74.48
2018-10-19T10:39:26.112Z,73.66
2018-10-19T10:40:26.093Z,74.68
2018-10-19T10:41:26.084Z,74.65
2018-10-19T10:42:26.084Z,74.04
2018-10-19T10:43:26.097Z,73.22
2018-10-19T10:44:34.398Z,71.30
2018-10-19T10:45:26.038Z,73.43
2018-10-19T10:46:26.043Z,73.22
2018-10-19T10:47:26.018Z,73.12
2018-10-19T10:48:26.029Z,72.72
2018-10-19T10:49:25.995Z,71.67
2018-10-19T10:50:26.040Z,71.47
2018-10-19T10:51:25.969Z,71.06
2018-10-19T10:52:25.961Z,72.48
2018-10-19T10:53:26.018Z,72.04
2018-10-19T10:54:25.940Z,71.33
2018-10-19T10:55:25.925Z,71.94
2018-10-19T10:56:25.915Z,71.94
2018-10-19T10:57:25.908Z,70.62
2018-10-19T10:58:25.913Z,70.32
2018-10-19T10:59:25.896Z,70.52
2018-10-19T11:00:25.868Z,70.79
2018-10-19T11:01:25.860Z,70.52
2018-10-19T11:02:25.849Z,70.72
2018-10-19T11:03:25.835Z,71.13
2018-10-19T11:04:25.844Z,69.98
2018-10-19T11:05:25.819Z,69.57
2018-10-19T11:06:25.805Z,68.16
2018-10-19T11:07:25.868Z,69.07
2018-10-19T11:08:25.783Z,69.81
2018-10-19T11:09:25.769Z,70.32
2018-10-19T11:10:25.763Z,70.69
2018-10-19T11:11:25.747Z,70.59
2018-10-19T11:12:25.739Z,70.69
2018-10-19T11:13:25.726Z,70.29
2018-10-19T11:14:25.743Z,71.03
2018-10-19T11:15:25.730Z,70.29
2018-10-19T11:16:25.696Z,69.27
2018-10-19T11:17:25.744Z,69.17
2018-10-19T11:18:25.686Z,69.98
2018-10-19T11:19:25.705Z,69.88
2018-10-19T11:20:25.645Z,70.89
2018-10-19T11:21:25.638Z,69.78
2018-10-19T11:22:25.708Z,69.17
2018-10-19T11:23:25.613Z,69.34
2018-10-19T11:24:25.605Z,68.13
2018-10-19T11:25:25.591Z,68.87
2018-10-19T11:26:25.586Z,68.97
2018-10-19T11:27:25.568Z,69.95
2018-10-19T11:28:25.585Z,69.44
2018-10-19T11:29:25.545Z,69.74
2018-10-19T11:30:25.572Z,69.95
2018-10-19T11:31:25.543Z,69.44
2018-10-19T11:32:25.514Z,69.34
2018-10-19T11:33:25.509Z,69.24
2018-10-19T11:34:25.568Z,69.65
2018-10-19T11:35:25.480Z,68.23
2018-10-19T11:36:25.532Z,67.29
2018-10-19T11:37:25.552Z,68.30
2018-10-19T11:38:25.463Z,68.40
2018-10-19T11:39:25.541Z,68.10
2018-10-19T11:40:25.446Z,67.69
2018-10-19T11:41:25.415Z,68.77
2018-10-19T11:42:25.403Z,68.57
2018-10-19T11:43:25.391Z,67.66
2018-10-19T11:44:25.386Z,67.55
2018-10-19T11:45:25.532Z,66.85
2018-10-19T11:46:25.356Z,66.75
2018-10-19T11:47:25.343Z,66.24
2018-10-19T11:48:25.559Z,67.86
2018-10-19T11:49:25.340Z,67.55
2018-10-19T11:50:25.321Z,66.44
2018-10-19T11:51:25.318Z,65.94
2018-10-19T11:52:25.288Z,66.14
2018-10-19T11:53:25.276Z,66.35
2018-10-19T11:54:25.269Z,66.95
2018-10-19T11:55:25.264Z,67.25
2018-10-19T11:56:25.310Z,66.98
2018-10-19T11:57:25.232Z,67.25
2018-10-19T11:58:25.286Z,66.75
2018-10-19T11:59:25.210Z,66.85
2018-10-19T12:00:25.212Z,67.79
2018-10-19T12:01:25.227Z,67.25
2018-10-19T12:02:25.178Z,66.35
2018-10-19T12:03:25.218Z,67.55
2018-10-19T12:04:25.154Z,67.15
2018-10-19T12:05:25.145Z,66.55
2018-10-19T12:06:25.138Z,66.24
2018-10-19T12:07:25.165Z,65.94
2018-10-19T12:08:25.135Z,65.73
2018-10-19T12:09:25.102Z,66.75
2018-10-19T12:10:25.089Z,67.15
2018-10-19T12:11:25.086Z,66.24
2018-10-19T12:12:25.071Z,67.35
2018-10-19T12:13:25.090Z,67.55
2018-10-19T12:14:25.043Z,65.73
2018-10-19T12:15:25.034Z,65.73
2018-10-19T12:16:25.478Z,65.73
2018-10-19T12:17:25.023Z,65.94
2018-10-19T12:18:25.000Z,65.73
2018-10-19T12:19:25.091Z,65.43
2018-10-19T12:20:25.009Z,65.43
2018-10-19T12:21:25.032Z,65.81
2018-10-19T12:22:25.000Z,66.11
2018-10-19T12:23:24.945Z,65.91
2018-10-19T12:24:24.957Z,67.32
2018-10-19T12:25:24.928Z,66.61
2018-10-19T12:26:24.910Z,65.30
2018-10-19T12:27:25.022Z,65.50
2018-10-19T12:28:24.889Z,65.81
2018-10-19T12:29:24.923Z,65.70
2018-10-19T12:30:24.863Z,65.40
2018-10-19T12:31:24.869Z,66.01
2018-10-19T12:32:24.905Z,65.30
2018-10-19T12:33:24.863Z,65.30
2018-10-19T12:34:24.838Z,67.12
2018-10-19T12:35:24.862Z,65.67
2018-10-19T12:36:24.807Z,65.88
2018-10-19T12:37:24.791Z,64.97
2018-10-19T12:38:24.781Z,65.98
2018-10-19T12:39:24.895Z,65.98
2018-10-19T12:40:24.756Z,65.98
2018-10-19T12:41:24.746Z,65.57
2018-10-19T12:42:24.790Z,64.46
2018-10-19T12:43:24.723Z,64.97
2018-10-19T12:44:24.708Z,65.78
2018-10-19T12:45:24.699Z,63.96
2018-10-19T12:46:24.685Z,64.06
2018-10-19T12:47:24.783Z,64.56
2018-10-19T12:48:24.767Z,64.26
2018-10-19T12:49:24.666Z,65.10
2018-10-19T12:50:24.705Z,64.67
2018-10-19T12:51:24.630Z,65.17
2018-10-19T12:52:24.643Z,65.27